Time;durP1;ratioP1;P1;durP2;ratioP2;P2;SDS_P1;SDS_P2;PMS_P1;PMS_P2;Temp;Humidity;BMP_temperature;BMP_pressure;BME280_temperature;BME280_humidity;BME280_pressure;Samples;Min_cycle;Max_cycle;Signal;HPM_P1;HPM_P2
2021/09/29 00:00:37;;;;;;;9.02;1.90;;;14.90;99.90;;;;;;4180912;28;20317;-88
2021/09/29 00:02:37;;;;;;;8.63;1.88;;;14.90;99.90;;;;;;4197802;28;20493;-88
2021/09/29 00:04:38;;;;;;;7.28;1.60;;;14.80;99.90;;;;;;4181051;28;20211;-87
2021/09/29 00:06:39;;;;;;;8.35;1.80;;;14.70;99.90;;;;;;4181164;28;20217;-86
2021/09/29 00:08:40;;;;;;;5.72;1.98;;;14.80;99.90;;;;;;4181121;28;20168;-87
2021/09/29 00:10:41;;;;;;;8.25;1.80;;;14.80;99.90;;;;;;4180971;28;20181;-88
2021/09/29 00:12:42;;;;;;;8.27;2.05;;;14.80;99.90;;;;;;4181011;28;20167;-87
2021/09/29 00:14:43;;;;;;;6.68;1.98;;;14.80;99.90;;;;;;4181391;28;20198;-88
2021/09/29 00:16:44;;;;;;;6.25;2.33;;;14.90;99.90;;;;;;4197624;28;20327;-87
2021/09/29 00:18:44;;;;;;;9.93;2.08;;;14.80;99.90;;;;;;4181142;28;20266;-88
2021/09/29 00:20:45;;;;;;;8.15;1.80;;;14.70;99.90;;;;;;4197362;28;20167;-86
2021/09/29 00:22:46;;;;;;;8.45;1.80;;;14.70;99.90;;;;;;4180905;28;20205;-87
2021/09/29 00:24:46;;;;;;;12.55;2.25;;;14.70;99.90;;;;;;4180423;28;20210;-87
2021/09/29 00:26:47;;;;;;;11.90;2.25;;;14.70;99.90;;;;;;4180864;28;20556;-86
2021/09/29 00:28:48;;;;;;;6.63;2.13;;;14.80;99.90;;;;;;4180912;28;20395;-90
2021/09/29 00:31:02;;;;;;;7.22;1.70;;;14.80;99.90;;;;;;4197367;28;20167;-87
2021/09/29 00:33:03;;;;;;;5.15;1.80;;;14.80;99.90;;;;;;4180604;28;20178;-87
2021/09/29 00:35:05;;;;;;;11.13;1.98;;;14.80;99.90;;;;;;4180643;28;20217;-86
2021/09/29 00:37:06;;;;;;;6.85;2.00;;;14.80;99.90;;;;;;4197133;28;20182;-87
2021/09/29 00:39:07;;;;;;;6.65;1.70;;;14.90;99.90;;;;;;4180469;28;20179;-87
2021/09/29 00:41:08;;;;;;;7.63;2.10;;;15.00;99.90;;;;;;4180572;28;20527;-87
2021/09/29 00:43:09;;;;;;;12.02;2.00;;;14.90;99.90;;;;;;4180641;28;20198;-87
2021/09/29 00:45:10;;;;;;;7.55;1.85;;;14.90;99.90;;;;;;4180526;28;20199;-87
2021/09/29 00:47:12;;;;;;;7.45;1.85;;;14.90;99.90;;;;;;4180702;28;20195;-88
2021/09/29 00:49:13;;;;;;;7.63;2.10;;;14.70;99.90;;;;;;4180435;28;20210;-88
2021/09/29 00:51:13;;;;;;;7.75;2.00;;;14.70;99.90;;;;;;4197011;28;20209;-87
2021/09/29 00:53:14;;;;;;;7.22;2.15;;;14.70;99.90;;;;;;4180457;28;20175;-87
2021/09/29 00:55:15;;;;;;;7.97;2.08;;;14.50;99.90;;;;;;4180283;28;20186;-90
2021/09/29 00:57:16;;;;;;;6.68;1.52;;;14.50;99.90;;;;;;4180500;28;20187;-88
2021/09/29 00:59:16;;;;;;;7.65;1.85;;;14.30;99.90;;;;;;4179893;28;20179;-87
2021/09/29 01:01:17;;;;;;;9.88;2.30;;;14.30;99.90;;;;;;4179964;28;20170;-87
2021/09/29 01:03:18;;;;;;;6.88;1.90;;;14.30;99.90;;;;;;4179584;28;20584;-86
2021/09/29 01:05:19;;;;;;;6.38;1.90;;;14.20;99.90;;;;;;4179655;28;20208;-87
2021/09/29 01:07:26;;;;;;;8.25;2.00;;;14.10;99.90;;;;;;4179451;28;20191;-87
2021/09/29 01:09:57;;;;;;;7.88;2.00;;;14.20;99.90;;;;;;4179689;28;20175;-86
2021/09/29 01:12:44;;;;;;;17.10;2.60;;;14.40;99.90;;;;;;4179628;28;20179;-87
2021/09/29 01:15:03;;;;;;;8.90;2.33;;;14.40;99.90;;;;;;4165513;28;20193;-87
2021/09/29 01:17:05;;;;;;;9.93;2.10;;;14.40;99.90;;;;;;4179688;28;20229;-87
2021/09/29 01:19:37;;;;;;;10.98;2.15;;;14.30;99.90;;;;;;4179520;28;20179;-87
2021/09/29 01:21:48;;;;;;;6.20;2.03;;;14.30;99.90;;;;;;4179651;28;20270;-87
2021/09/29 01:24:11;;;;;;;11.45;2.40;;;14.20;99.90;;;;;;4179770;28;20260;-86
2021/09/29 01:26:17;;;;;;;10.43;1.70;;;14.20;99.90;;;;;;4179487;28;20175;-86
2021/09/29 01:28:31;;;;;;;8.63;2.40;;;14.20;99.90;;;;;;4179251;28;20192;-87
2021/09/29 01:30:33;;;;;;;9.77;2.20;;;14.20;99.90;;;;;;4179621;28;20213;-86
2021/09/29 01:32:34;;;;;;;8.48;2.05;;;14.10;99.90;;;;;;4180976;28;20218;-86
2021/09/29 01:34:35;;;;;;;10.45;2.58;;;14.10;99.90;;;;;;4182481;28;20244;-86
2021/09/29 01:36:38;;;;;;;7.43;2.30;;;14.10;99.90;;;;;;4182339;28;20159;-87
2021/09/29 01:38:41;;;;;;;8.00;2.10;;;14.00;99.90;;;;;;4182335;28;20182;-87
2021/09/29 01:40:42;;;;;;;9.23;2.20;;;14.00;99.90;;;;;;4182473;28;20623;-87
2021/09/29 01:42:42;;;;;;;8.70;2.22;;;14.00;99.90;;;;;;4182413;28;20179;-87
2021/09/29 01:44:43;;;;;;;7.15;1.90;;;14.00;99.90;;;;;;4182202;28;20210;-87
2021/09/29 01:46:44;;;;;;;12.13;2.40;;;14.10;99.90;;;;;;4182259;28;20238;-87
2021/09/29 01:49:15;;;;;;;7.05;2.22;;;14.10;99.90;;;;;;4182203;28;20591;-86
2021/09/29 01:51:17;;;;;;;13.20;2.08;;;14.10;99.90;;;;;;4198820;28;20179;-86
2021/09/29 01:53:19;;;;;;;11.48;2.50;;;14.10;99.90;;;;;;4182444;28;20175;-87
2021/09/29 01:55:21;;;;;;;8.70;2.25;;;14.00;99.90;;;;;;4182100;28;20179;-87
2021/09/29 01:57:24;;;;;;;9.46;2.64;;;14.10;99.90;;;;;;4183307;28;1174714;-87
2021/09/29 01:59:25;;;;;;;7.20;2.33;;;14.20;99.90;;;;;;4199935;28;20175;-86
2021/09/29 02:01:26;;;;;;;7.32;2.45;;;14.30;99.90;;;;;;4183518;28;20175;-91
2021/09/29 02:03:27;;;;;;;11.32;2.50;;;14.30;99.90;;;;;;4199502;28;20647;-87
2021/09/29 02:05:32;;;;;;;8.98;2.40;;;14.30;99.90;;;;;;4182948;28;20207;-89
2021/09/29 02:07:33;;;;;;;8.90;3.15;;;14.30;99.90;;;;;;4183130;28;20203;-87
2021/09/29 02:09:34;;;;;;;11.13;2.83;;;14.40;99.90;;;;;;4183144;28;20159;-90
2021/09/29 02:11:35;;;;;;;7.03;2.63;;;14.40;99.90;;;;;;4182811;28;20221;-91
2021/09/29 02:13:35;;;;;;;8.13;3.00;;;14.40;99.90;;;;;;4183260;28;20661;-87
2021/09/29 02:15:37;;;;;;;7.20;2.30;;;14.40;99.90;;;;;;4183114;28;20647;-87
2021/09/29 02:17:37;;;;;;;10.32;2.45;;;14.40;99.90;;;;;;4182889;28;20193;-88
2021/09/29 02:19:38;;;;;;;7.93;2.38;;;14.40;99.90;;;;;;4199511;28;20212;-88
2021/09/29 02:21:40;;;;;;;11.02;2.72;;;14.40;99.90;;;;;;4202026;28;20171;-88
2021/09/29 02:23:41;;;;;;;7.93;2.63;;;14.40;99.90;;;;;;4187872;28;20172;-88
2021/09/29 02:25:42;;;;;;;11.38;2.55;;;14.30;99.90;;;;;;4203968;28;20172;-88
2021/09/29 02:27:42;;;;;;;13.00;2.83;;;14.30;99.90;;;;;;4194641;28;20188;-87
2021/09/29 02:29:43;;;;;;;6.63;2.58;;;14.20;99.90;;;;;;4182640;28;20168;-87
2021/09/29 02:31:44;;;;;;;10.50;2.45;;;14.20;99.90;;;;;;4199116;28;20167;-86
2021/09/29 02:33:45;;;;;;;7.68;2.22;;;14.10;99.90;;;;;;4199453;28;20174;-87
2021/09/29 02:35:45;;;;;;;15.52;2.25;;;14.10;99.90;;;;;;4199350;28;20178;-89
2021/09/29 02:37:46;;;;;;;12.10;2.60;;;14.20;99.90;;;;;;4182471;28;20201;-89
2021/09/29 02:39:47;;;;;;;8.65;2.83;;;14.20;99.90;;;;;;4200080;28;20706;-87
2021/09/29 02:41:48;;;;;;;7.57;1.77;;;14.10;99.90;;;;;;4198861;28;20177;-91
2021/09/29 02:43:49;;;;;;;14.98;1.88;;;14.10;99.90;;;;;;4182380;28;20261;-88
2021/09/29 02:45:49;;;;;;;9.60;1.80;;;14.20;99.90;;;;;;4182527;28;20551;-87
2021/09/29 02:47:50;;;;;;;8.57;1.50;;;14.30;99.90;;;;;;4182367;28;20279;-88
2021/09/29 02:49:51;;;;;;;8.38;1.65;;;14.30;99.90;;;;;;4182624;28;20176;-87
2021/09/29 02:51:52;;;;;;;10.38;1.55;;;14.30;99.90;;;;;;4182712;28;20174;-90
2021/09/29 02:53:53;;;;;;;6.47;1.35;;;14.20;99.90;;;;;;4182399;28;20183;-87
2021/09/29 02:55:53;;;;;;;6.72;1.20;;;14.20;99.90;;;;;;4182360;28;20172;-87
2021/09/29 02:57:54;;;;;;;6.60;1.40;;;14.20;99.90;;;;;;4182527;28;20365;-88
2021/09/29 02:59:55;;;;;;;6.05;1.33;;;14.20;99.90;;;;;;4182203;28;20619;-88
2021/09/29 03:01:56;;;;;;;6.10;1.20;;;14.10;99.90;;;;;;4198753;28;20274;-86
2021/09/29 03:03:56;;;;;;;7.97;1.00;;;14.10;99.90;;;;;;4182191;28;20191;-87
2021/09/29 03:05:57;;;;;;;7.40;1.08;;;14.00;99.90;;;;;;4182183;28;20669;-88
2021/09/29 03:07:58;;;;;;;10.32;1.40;;;13.90;99.90;;;;;;4182029;28;20202;-88
2021/09/29 03:09:58;;;;;;;9.45;1.02;;;13.90;99.90;;;;;;4182031;28;20665;-88
2021/09/29 03:11:59;;;;;;;8.45;1.00;;;13.90;99.90;;;;;;4182161;28;20167;-88
2021/09/29 03:14:00;;;;;;;5.22;0.98;;;13.90;99.90;;;;;;4182319;28;20160;-87
2021/09/29 03:16:01;;;;;;;7.25;0.73;;;13.90;99.90;;;;;;4182352;28;20180;-87
2021/09/29 03:18:03;;;;;;;4.80;1.00;;;13.90;99.90;;;;;;4181817;28;20183;-88
2021/09/29 03:20:04;;;;;;;3.45;0.75;;;14.00;99.90;;;;;;4182257;28;20179;-87
2021/09/29 03:22:05;;;;;;;7.40;1.10;;;14.00;99.90;;;;;;4182015;28;20198;-88
2021/09/29 03:24:06;;;;;;;6.22;0.80;;;13.90;99.90;;;;;;4181754;28;20214;-87
2021/09/29 03:26:07;;;;;;;4.35;1.13;;;13.90;99.90;;;;;;4198532;28;20171;-87
2021/09/29 03:28:07;;;;;;;8.25;1.20;;;14.00;99.90;;;;;;4181489;28;20195;-88
2021/09/29 03:30:09;;;;;;;4.93;0.80;;;13.90;99.90;;;;;;4181874;28;20233;-89
2021/09/29 03:32:09;;;;;;;4.28;0.98;;;13.80;99.90;;;;;;4198387;28;20167;-87
2021/09/29 03:34:10;;;;;;;3.63;0.75;;;13.80;99.90;;;;;;4181915;28;20660;-88
2021/09/29 03:36:11;;;;;;;4.95;0.88;;;13.80;99.90;;;;;;4181694;28;20176;-90
2021/09/29 03:38:12;;;;;;;5.07;0.57;;;13.80;99.90;;;;;;4197988;28;20249;-92
2021/09/29 03:40:14;;;;;;;7.05;0.93;;;13.90;99.90;;;;;;4181662;28;20190;-90
2021/09/29 03:42:15;;;;;;;6.18;0.98;;;13.90;99.90;;;;;;4181424;28;20167;-88
2021/09/29 03:44:16;;;;;;;6.03;0.98;;;13.80;99.90;;;;;;4181191;28;20210;-88
2021/09/29 03:46:17;;;;;;;9.45;1.08;;;13.80;99.90;;;;;;4197933;28;20258;-90
2021/09/29 03:48:18;;;;;;;5.63;1.08;;;13.90;99.90;;;;;;4181315;28;20196;-88
2021/09/29 03:50:18;;;;;;;7.90;1.00;;;13.80;99.90;;;;;;4181436;28;20571;-88
2021/09/29 03:52:19;;;;;;;5.35;0.90;;;13.70;99.90;;;;;;4181458;28;20594;-88
2021/09/29 03:54:20;;;;;;;8.32;1.15;;;13.70;99.90;;;;;;4180952;28;20190;-88
2021/09/29 03:56:21;;;;;;;10.05;1.27;;;13.70;99.90;;;;;;4197619;28;20252;-87
2021/09/29 03:58:21;;;;;;;5.00;1.10;;;13.60;99.90;;;;;;4181125;28;20687;-91
2021/09/29 04:00:22;;;;;;;7.85;1.23;;;13.50;99.90;;;;;;4197998;28;20175;-87
2021/09/29 04:02:23;;;;;;;10.90;1.25;;;13.60;99.90;;;;;;4181284;28;20172;-91
2021/09/29 04:04:24;;;;;;;10.73;1.20;;;13.60;99.90;;;;;;4180882;28;20223;-88
2021/09/29 04:06:25;;;;;;;9.43;1.25;;;13.60;99.90;;;;;;4181044;28;20174;-88
2021/09/29 04:08:26;;;;;;;7.88;1.13;;;13.50;99.90;;;;;;4198676;28;20179;-89
2021/09/29 04:10:27;;;;;;;6.03;1.10;;;13.60;99.90;;;;;;4197983;28;20190;-87
2021/09/29 04:12:27;;;;;;;8.30;1.20;;;13.60;99.90;;;;;;4181460;28;20240;-89
2021/09/29 04:14:28;;;;;;;10.27;1.02;;;13.50;99.90;;;;;;4197517;28;20174;-92
2021/09/29 04:16:29;;;;;;;7.00;1.30;;;13.60;99.90;;;;;;4180917;28;20225;-89
2021/09/29 04:18:30;;;;;;;7.20;1.20;;;13.60;99.90;;;;;;4180566;28;20276;-88
2021/09/29 04:20:30;;;;;;;9.60;1.00;;;13.60;99.90;;;;;;4197501;28;20175;-88
2021/09/29 04:22:32;;;;;;;5.18;1.00;;;13.60;99.90;;;;;;4180884;28;20173;-87
2021/09/29 04:24:34;;;;;;;9.55;1.13;;;13.60;99.90;;;;;;4180976;28;20209;-93
2021/09/29 04:26:37;;;;;;;3.90;0.82;;;13.60;99.90;;;;;;4180809;28;20175;-88
2021/09/29 04:28:38;;;;;;;8.98;1.30;;;13.60;99.90;;;;;;4197389;28;20171;-87
2021/09/29 04:30:38;;;;;;;8.75;0.98;;;13.60;99.90;;;;;;4180796;28;20199;-88
2021/09/29 04:32:39;;;;;;;7.13;1.17;;;13.60;99.90;;;;;;4180726;28;20536;-88
2021/09/29 04:34:40;;;;;;;7.97;1.15;;;13.60;99.90;;;;;;4180893;28;20213;-87
2021/09/29 04:36:41;;;;;;;11.93;1.10;;;13.60;99.90;;;;;;4180675;28;20175;-88
2021/09/29 04:38:42;;;;;;;5.00;0.98;;;13.60;99.90;;;;;;4180461;28;20202;-87
2021/09/29 04:40:42;;;;;;;10.98;1.15;;;13.70;99.90;;;;;;4197095;28;20183;-88
2021/09/29 04:42:43;;;;;;;8.68;1.30;;;13.70;99.90;;;;;;4180817;28;20604;-87
2021/09/29 04:44:44;;;;;;;9.23;1.27;;;13.60;99.90;;;;;;4180555;28;20671;-88
2021/09/29 04:46:45;;;;;;;7.25;1.67;;;13.60;99.90;;;;;;4180544;28;20191;-88
2021/09/29 04:48:45;;;;;;;9.68;1.40;;;13.60;99.90;;;;;;4180590;28;20266;-88
2021/09/29 04:50:46;;;;;;;5.95;0.98;;;13.70;99.90;;;;;;4180604;28;20164;-89
2021/09/29 04:52:47;;;;;;;9.95;1.20;;;13.80;99.90;;;;;;4197566;28;20170;-88
2021/09/29 04:54:48;;;;;;;8.95;1.25;;;13.80;99.90;;;;;;4202989;28;20174;-88
2021/09/29 04:56:51;;;;;;;7.03;1.20;;;13.90;99.90;;;;;;4194156;28;20179;-90
2021/09/29 04:58:52;;;;;;;12.88;1.55;;;13.90;99.90;;;;;;4201358;28;20183;-89
2021/09/29 05:00:53;;;;;;;8.32;1.20;;;14.00;99.90;;;;;;4184363;28;20195;-89
2021/09/29 05:02:53;;;;;;;9.43;1.10;;;14.00;99.90;;;;;;4180395;28;20278;-87
2021/09/29 05:04:54;;;;;;;8.63;1.25;;;14.00;99.90;;;;;;4180531;28;20305;-89
2021/09/29 05:06:55;;;;;;;9.15;1.40;;;14.00;99.90;;;;;;4180296;28;20188;-88
2021/09/29 05:08:57;;;;;;;10.15;1.45;;;14.10;99.90;;;;;;4197275;28;20747;-88
2021/09/29 05:11:19;;;;;;;8.88;1.20;;;14.20;99.90;;;;;;4180606;28;20249;-88
2021/09/29 05:13:26;;;;;;;13.35;1.23;;;14.30;99.90;;;;;;4197171;28;20273;-88
2021/09/29 05:15:27;;;;;;;4.88;1.08;;;14.20;99.90;;;;;;4180367;28;20176;-87
2021/09/29 05:17:28;;;;;;;6.13;1.20;;;14.40;99.90;;;;;;4180056;28;20706;-88
2021/09/29 05:19:28;;;;;;;4.95;0.90;;;14.30;99.90;;;;;;4180179;28;20172;-88
2021/09/29 05:21:29;;;;;;;8.48;1.13;;;14.20;99.90;;;;;;4196803;28;20258;-87
2021/09/29 05:23:30;;;;;;;6.28;0.95;;;14.40;99.90;;;;;;4180428;28;20172;-88
2021/09/29 05:25:31;;;;;;;3.88;0.70;;;14.20;99.90;;;;;;4180002;28;20251;-88
2021/09/29 05:27:32;;;;;;;3.30;0.60;;;14.10;99.90;;;;;;4196876;28;20195;-90
2021/09/29 05:29:35;;;;;;;3.35;0.80;;;13.90;99.90;;;;;;4180204;28;20175;-88
2021/09/29 05:31:36;;;;;;;2.63;0.57;;;14.00;99.90;;;;;;4179972;28;20164;-91
2021/09/29 05:33:36;;;;;;;2.92;0.30;;;14.00;99.90;;;;;;4180289;28;20215;-90
2021/09/29 05:35:37;;;;;;;1.02;0.20;;;13.90;99.90;;;;;;4180285;28;20190;-91
2021/09/29 05:37:38;;;;;;;1.95;0.40;;;14.00;99.90;;;;;;4180255;28;20238;-92
2021/09/29 05:39:39;;;;;;;2.30;0.50;;;13.90;99.90;;;;;;4197031;28;20159;-90
2021/09/29 05:41:39;;;;;;;1.58;0.40;;;13.80;99.90;;;;;;4180284;28;20172;-90
2021/09/29 05:43:41;;;;;;;2.03;0.40;;;13.80;99.90;;;;;;4180376;28;20187;-92
2021/09/29 05:45:42;;;;;;;2.50;0.40;;;13.90;99.90;;;;;;4180182;28;20230;-91
2021/09/29 05:47:42;;;;;;;1.42;0.30;;;13.80;99.90;;;;;;4179978;28;20602;-90
2021/09/29 05:49:43;;;;;;;2.22;0.30;;;13.80;99.90;;;;;;4196651;28;20171;-90
2021/09/29 05:51:47;;;;;;;1.95;0.50;;;13.80;99.90;;;;;;4180231;28;20164;-91
2021/09/29 05:53:47;;;;;;;2.25;0.40;;;13.80;99.90;;;;;;4180042;28;20176;-92
2021/09/29 05:55:49;;;;;;;1.20;0.30;;;13.70;99.90;;;;;;4180120;28;20170;-90
2021/09/29 05:57:49;;;;;;;1.38;0.30;;;13.70;99.90;;;;;;4179966;28;20219;-91
2021/09/29 05:59:51;;;;;;;1.67;0.20;;;13.70;99.90;;;;;;4180176;28;20172;-91
2021/09/29 06:01:52;;;;;;;2.42;0.38;;;13.70;99.90;;;;;;4179788;28;20179;-90
2021/09/29 06:03:52;;;;;;;0.85;0.20;;;13.70;99.90;;;;;;4180123;28;20163;-92
2021/09/29 06:05:53;;;;;;;3.40;0.28;;;13.60;99.90;;;;;;4180173;28;20231;-90
2021/09/29 06:07:54;;;;;;;3.35;0.20;;;13.50;99.90;;;;;;4180011;28;20188;-92
2021/09/29 06:09:55;;;;;;;1.73;0.20;;;13.40;99.90;;;;;;4180051;28;20172;-91
2021/09/29 06:11:56;;;;;;;2.53;0.20;;;13.40;99.90;;;;;;4179869;28;20626;-90
2021/09/29 06:14:01;;;;;;;2.25;0.20;;;13.40;99.90;;;;;;4196632;28;20193;-91
2021/09/29 06:16:06;;;;;;;0.98;0.22;;;13.40;99.90;;;;;;4180290;28;20172;-91
2021/09/29 06:18:13;;;;;;;1.27;0.35;;;13.30;99.90;;;;;;4180616;28;20695;-91
2021/09/29 06:20:13;;;;;;;1.02;0.35;;;13.20;99.90;;;;;;4182891;28;20531;-90
2021/09/29 06:22:15;;;;;;;1.10;0.40;;;13.30;99.90;;;;;;4184074;28;20179;-92
2021/09/29 06:24:16;;;;;;;2.42;0.50;;;13.10;99.90;;;;;;4183244;28;20203;-90
2021/09/29 06:26:16;;;;;;;4.43;0.50;;;12.90;99.90;;;;;;4199352;28;20265;-91
2021/09/29 06:28:17;;;;;;;2.45;0.40;;;12.90;99.90;;;;;;4182899;28;20223;-91
2021/09/29 06:30:18;;;;;;;0.77;0.30;;;13.00;99.90;;;;;;4183124;28;20175;-92
2021/09/29 06:32:19;;;;;;;2.10;0.40;;;13.00;99.90;;;;;;4182994;28;20168;-91
2021/09/29 06:34:20;;;;;;;4.32;0.57;;;13.20;99.90;;;;;;4182758;28;20175;-92
2021/09/29 06:36:21;;;;;;;1.45;0.40;;;13.30;99.90;;;;;;4182802;28;20168;-91
2021/09/29 06:38:21;;;;;;;1.25;0.40;;;13.50;99.90;;;;;;4182708;28;20203;-91
2021/09/29 06:40:22;;;;;;;4.38;0.60;;;13.70;99.90;;;;;;4182614;28;20701;-90
2021/09/29 06:42:23;;;;;;;2.40;0.63;;;13.90;99.90;;;;;;4182651;28;20203;-91
2021/09/29 06:44:26;;;;;;;5.45;0.60;;;13.90;99.90;;;;;;4182544;28;20207;-91
2021/09/29 06:46:27;;;;;;;2.25;0.40;;;13.80;99.90;;;;;;4182657;28;20179;-91
2021/09/29 06:48:27;;;;;;;2.22;0.30;;;13.80;99.90;;;;;;4182224;28;20233;-92
2021/09/29 06:50:28;;;;;;;4.43;0.57;;;13.80;99.90;;;;;;4182601;28;20724;-91
2021/09/29 06:52:29;;;;;;;3.22;0.50;;;13.90;99.90;;;;;;4182672;28;20198;-91
2021/09/29 06:54:30;;;;;;;3.28;0.50;;;13.90;99.90;;;;;;4182534;28;20171;-91
2021/09/29 06:56:31;;;;;;;1.83;0.38;;;13.90;99.90;;;;;;4182490;28;20172;-91
2021/09/29 06:58:34;;;;;;;1.52;0.30;;;13.80;99.90;;;;;;4182365;28;20184;-92
2021/09/29 07:00:34;;;;;;;2.20;0.50;;;13.70;99.90;;;;;;4182743;28;20167;-91
2021/09/29 07:02:42;;;;;;;2.95;0.60;;;13.60;99.90;;;;;;4182298;28;20197;-92
2021/09/29 07:04:43;;;;;;;4.35;0.40;;;13.50;99.90;;;;;;4182437;28;20426;-91
2021/09/29 07:06:44;;;;;;;1.75;0.45;;;13.40;99.90;;;;;;4182542;28;20264;-92
2021/09/29 07:08:46;;;;;;;1.50;0.52;;;13.40;99.90;;;;;;4182296;28;20655;-91
2021/09/29 07:10:47;;;;;;;1.52;0.40;;;13.40;99.90;;;;;;4182195;28;20182;-91
2021/09/29 07:12:48;;;;;;;1.58;0.52;;;13.60;99.90;;;;;;4182366;28;20563;-92
2021/09/29 07:14:49;;;;;;;4.25;0.73;;;13.60;99.90;;;;;;4182181;28;20186;-91
2021/09/29 07:16:51;;;;;;;6.43;0.63;;;13.60;99.90;;;;;;4184859;28;20687;-91
2021/09/29 07:18:55;;;;;;;1.17;0.47;;;13.70;99.90;;;;;;4198942;28;20624;-92
2021/09/29 07:20:55;;;;;;;1.83;0.30;;;13.80;99.90;;;;;;4182287;28;20168;-90
2021/09/29 07:22:59;;;;;;;1.35;0.50;;;13.80;99.90;;;;;;4182165;28;20222;-92
2021/09/29 07:25:00;;;;;;;3.13;0.50;;;13.80;99.90;;;;;;4182307;28;20286;-90
2021/09/29 07:27:01;;;;;;;1.60;0.60;;;13.90;99.90;;;;;;4214341;28;20197;-92
2021/09/29 07:29:02;;;;;;;3.75;0.55;;;13.90;99.90;;;;;;4197370;28;20254;-92
2021/09/29 07:31:03;;;;;;;2.17;0.50;;;13.80;99.90;;;;;;4210900;28;20170;-93
2021/09/29 07:33:04;;;;;;;3.28;0.70;;;13.80;99.90;;;;;;4183070;28;20183;-90
2021/09/29 07:35:06;;;;;;;4.38;0.57;;;13.70;99.90;;;;;;4182423;28;20179;-91
2021/09/29 07:37:07;;;;;;;1.70;0.52;;;13.80;99.90;;;;;;4181717;28;20191;-91
2021/09/29 07:39:07;;;;;;;1.63;0.50;;;13.90;99.90;;;;;;4198281;28;20270;-91
2021/09/29 07:41:08;;;;;;;2.95;0.60;;;13.90;99.90;;;;;;4181989;28;20176;-91
2021/09/29 07:43:09;;;;;;;3.85;0.47;;;13.80;99.90;;;;;;4181549;28;20251;-91
2021/09/29 07:45:11;;;;;;;2.50;0.50;;;13.80;99.90;;;;;;4181712;28;20203;-90
2021/09/29 07:47:11;;;;;;;3.50;0.70;;;13.80;99.90;;;;;;4181864;28;20183;-90
2021/09/29 07:49:12;;;;;;;5.18;0.70;;;13.80;99.90;;;;;;4181408;28;20171;-90
2021/09/29 07:51:14;;;;;;;3.95;1.02;;;13.90;99.90;;;;;;4181508;28;20168;-91
2021/09/29 07:53:17;;;;;;;3.38;0.60;;;13.80;99.90;;;;;;4181600;28;20167;-92
2021/09/29 07:55:19;;;;;;;5.88;0.80;;;13.80;99.90;;;;;;4198084;28;20586;-92
2021/09/29 07:57:20;;;;;;;3.88;0.90;;;13.70;99.90;;;;;;4181592;28;20663;-92
2021/09/29 07:59:22;;;;;;;2.45;0.50;;;13.90;99.90;;;;;;4181374;28;20221;-91
2021/09/29 08:01:24;;;;;;;2.65;0.63;;;14.10;99.90;;;;;;4182271;28;20243;-91
2021/09/29 08:03:24;;;;;;;1.67;0.70;;;14.20;99.90;;;;;;4197944;28;20171;-91
2021/09/29 08:05:25;;;;;;;4.20;1.20;;;14.30;99.90;;;;;;4181526;28;20261;-91
2021/09/29 08:07:26;;;;;;;2.58;0.80;;;14.20;99.90;;;;;;4181453;28;20627;-90
2021/09/29 08:09:28;;;;;;;3.78;1.10;;;14.20;99.90;;;;;;4181395;28;20168;-90
2021/09/29 08:11:29;;;;;;;3.83;0.90;;;14.10;99.90;;;;;;4181350;28;20168;-90
2021/09/29 08:13:30;;;;;;;2.20;0.90;;;14.00;99.90;;;;;;4181367;28;20206;-88
2021/09/29 08:15:31;;;;;;;5.60;1.17;;;14.00;99.90;;;;;;4197747;28;20170;-91
2021/09/29 08:17:31;;;;;;;5.82;1.40;;;14.00;99.90;;;;;;4183335;28;20184;-92
2021/09/29 08:19:34;;;;;;;3.83;1.00;;;14.20;99.90;;;;;;4181232;28;20175;-92
2021/09/29 08:21:35;;;;;;;3.65;0.90;;;14.20;99.90;;;;;;4181174;28;20191;-92
2021/09/29 08:23:39;;;;;;;2.90;1.10;;;14.20;99.90;;;;;;4197706;28;20244;-93
2021/09/29 08:26:29;;;;;;;2.63;0.90;;;14.40;99.90;;;;;;4180944;28;20211;-92
2021/09/29 08:32:17;;;;;;;2.97;1.08;;;14.40;99.90;;;;;;4197625;28;20244;-91
2021/09/29 08:34:37;;;;;;;6.13;1.25;;;14.50;99.90;;;;;;4181082;28;20167;-92
2021/09/29 08:39:01;;;;;;;4.88;1.10;;;14.70;99.90;;;;;;4197412;28;20213;-93
2021/09/29 08:45:20;;;;;;;3.47;0.90;;;15.40;99.90;;;;;;4197136;28;20241;-91
2021/09/29 08:47:39;;;;;;;4.13;1.27;;;15.70;99.90;;;;;;4197329;28;20272;-93
2021/09/29 08:52:01;;;;;;;7.38;1.25;;;16.50;99.90;;;;;;4197331;28;20277;-91
2021/09/29 08:54:39;;;;;;;5.40;0.85;;;16.80;99.90;;;;;;4180913;28;20179;-93
2021/09/29 09:17:11;;;;;;;4.53;1.50;;;15.20;99.90;;;;;;4197471;28;20198;-91
2021/09/29 09:19:14;;;;;;;6.13;1.50;;;15.80;99.90;;;;;;4197126;28;20202;-92
2021/09/29 09:21:17;;;;;;;8.65;1.48;;;15.80;99.90;;;;;;4197440;28;20670;-94
2021/09/29 09:23:17;;;;;;;3.65;1.40;;;16.40;99.90;;;;;;4180553;28;20222;-92
2021/09/29 09:25:34;;;;;;;8.32;1.50;;;16.70;99.90;;;;;;4180584;28;20211;-91
2021/09/29 09:27:40;;;;;;;4.53;1.20;;;17.10;99.90;;;;;;4180397;28;20206;-93
2021/09/29 09:29:49;;;;;;;8.90;1.40;;;16.90;99.90;;;;;;4180391;28;20718;-92
2021/09/29 09:31:50;;;;;;;8.52;1.60;;;17.40;99.90;;;;;;4180241;28;20206;-92
2021/09/29 09:33:54;;;;;;;5.03;1.30;;;17.40;99.90;;;;;;4197592;28;20198;-92
2021/09/29 09:35:55;;;;;;;3.65;1.40;;;17.40;99.90;;;;;;4181529;28;20203;-94
2021/09/29 09:37:59;;;;;;;7.07;1.35;;;17.30;99.90;;;;;;4180394;28;20202;-91
2021/09/29 09:40:13;;;;;;;3.53;1.10;;;17.30;99.90;;;;;;4181760;28;20171;-95
2021/09/29 09:42:14;;;;;;;4.32;1.27;;;17.00;99.90;;;;;;4180263;28;20604;-93
2021/09/29 09:44:22;;;;;;;4.43;1.13;;;16.70;99.90;;;;;;4197379;28;20206;-93
2021/09/29 09:46:24;;;;;;;2.72;1.10;;;17.10;99.90;;;;;;4180818;28;20193;-92
2021/09/29 09:48:27;;;;;;;3.33;0.98;;;17.20;99.90;;;;;;4180531;28;20583;-94
2021/09/29 09:50:29;;;;;;;4.25;1.30;;;17.00;99.90;;;;;;4181953;28;20180;-91
2021/09/29 09:52:44;;;;;;;2.95;0.98;;;17.00;99.90;;;;;;4180977;28;20164;-92
2021/09/29 09:54:44;;;;;;;4.40;1.17;;;16.80;99.90;;;;;;4183565;28;20183;-91
2021/09/29 09:56:53;;;;;;;4.90;1.00;;;16.70;99.90;;;;;;4187445;28;20207;-92
2021/09/29 09:58:54;;;;;;;2.60;0.90;;;16.90;99.90;;;;;;4201378;28;20173;-92
2021/09/29 10:00:59;;;;;;;4.85;1.08;;;16.90;99.90;;;;;;4200276;28;20167;-90
2021/09/29 10:03:01;;;;;;;3.22;0.70;;;16.90;99.90;;;;;;4197924;28;20272;-91
2021/09/29 10:05:02;;;;;;;4.30;0.80;;;16.50;99.90;;;;;;4184566;28;20722;-94
2021/09/29 10:07:06;;;;;;;1.75;0.70;;;16.20;99.90;;;;;;4200676;28;20198;-93
2021/09/29 10:09:38;;;;;;;3.35;0.80;;;16.10;99.90;;;;;;4183305;28;20235;-91
2021/09/29 10:11:33;;;;;;;7.82;1.02;;;16.00;99.90;;;;;;4200467;28;20175;-93
2021/09/29 10:27:54;;;;;;;4.68;1.48;;;16.50;99.90;;;;;;4200217;28;20186;-91
2021/09/29 10:30:07;;;;;;;6.15;1.40;;;16.30;99.90;;;;;;4184488;28;20191;-92
2021/09/29 10:32:15;;;;;;;4.68;1.40;;;16.30;99.90;;;;;;4183553;28;20238;-93
2021/09/29 10:42:52;;;;;;;4.25;1.33;;;16.60;99.90;;;;;;4199323;28;20316;-92
2021/09/29 10:47:11;;;;;;;3.58;1.25;;;16.90;99.90;;;;;;4200402;28;20183;-92
2021/09/29 11:29:20;;;;;;;4.20;0.60;;;15.70;99.90;;;;;;4200310;28;20183;-94
2021/09/29 11:31:33;;;;;;;3.75;0.68;;;15.90;99.90;;;;;;4182362;28;20171;-91
2021/09/29 11:35:53;;;;;;;4.28;0.45;;;16.10;99.90;;;;;;4199071;28;20216;-92
2021/09/29 12:08:39;;;;;;;3.47;0.80;;;17.70;99.90;;;;;;4197647;28;20259;-92
2021/09/29 12:10:49;;;;;;;5.03;0.52;;;17.30;99.90;;;;;;4181560;28;20226;-92
2021/09/29 12:12:52;;;;;;;9.05;1.10;;;16.80;99.90;;;;;;4181431;28;20266;-93
2021/09/29 12:14:59;;;;;;;2.35;0.77;;;16.70;99.90;;;;;;4181254;28;20241;-93
2021/09/29 12:17:00;;;;;;;5.50;0.85;;;16.50;99.90;;;;;;4180522;28;20183;-91
2021/09/29 12:19:06;;;;;;;11.63;0.90;;;16.10;99.90;;;;;;4181017;28;20575;-92
2021/09/29 12:21:07;;;;;;;5.32;1.00;;;15.90;99.90;;;;;;4181202;28;20175;-92
2021/09/29 12:23:08;;;;;;;7.30;0.82;;;15.80;99.90;;;;;;4197865;28;20203;-94
2021/09/29 12:25:13;;;;;;;5.68;0.90;;;15.80;99.90;;;;;;4181215;28;20223;-91
2021/09/29 12:27:36;;;;;;;3.53;0.80;;;15.90;99.90;;;;;;4181162;28;20249;-93
2021/09/29 12:29:53;;;;;;;4.72;0.80;;;15.80;99.90;;;;;;4181132;28;20258;-93
2021/09/29 12:32:05;;;;;;;6.03;0.50;;;15.90;99.90;;;;;;4181265;28;20182;-92
2021/09/29 12:34:25;;;;;;;6.18;0.70;;;15.90;99.90;;;;;;4180736;28;20258;-94
2021/09/29 12:36:38;;;;;;;2.63;0.50;;;16.00;99.90;;;;;;4180794;28;20195;-92
2021/09/29 12:38:41;;;;;;;12.10;0.85;;;16.10;99.90;;;;;;4180866;28;20171;-92
2021/09/29 12:40:44;;;;;;;5.20;0.90;;;16.30;99.90;;;;;;4197219;28;20179;-91
2021/09/29 12:42:44;;;;;;;2.03;0.40;;;16.30;99.90;;;;;;4180756;28;20163;-92
2021/09/29 12:44:51;;;;;;;3.03;0.57;;;16.00;99.90;;;;;;4180806;28;20203;-87
2021/09/29 12:49:13;;;;;;;3.78;0.43;;;15.50;99.90;;;;;;4197630;28;20221;-92
2021/09/29 12:51:14;;;;;;;2.53;0.50;;;15.50;99.90;;;;;;4180670;28;20179;-91
2021/09/29 12:55:21;;;;;;;5.93;0.30;;;15.40;99.90;;;;;;4197202;28;20170;-91